Flight Track Log - Related Links

Times and Time Zones

All times are in EDT time to prevent confusion due to time zone crossing. See the EGF4285 flight status page for this flight to view local times or setup timezone preferences in your user account.

Time Position Orientation Groundspeed Altitude Reporting Facility
EDT Latitude Longitude Course Direction KTS MPH feet Rate Location/Type
Mon 06:14:09 AM 39.1500 -76.6500 218° Southwest 170 196 1,300  Level Potomac TRACON
Mon 06:14:51 AM 39.1333 -76.6833 237° Southwest 219 252 2,400 2,000 Climbing Potomac TRACON
Mon 06:15:51 AM 39.1667 -76.7500 303° West 225 259 4,700 2,132 Climbing Potomac TRACON
Mon 06:16:00 AM 39.2000 -77.0381 270° West  Level FlightAware Approximate
Mon 06:17:00 AM 39.1905 -77.1595 218° Southwest  Level FlightAware Approximate
Mon 06:17:23 AM 39.1881 -76.8661 283° West 236 272 7,800  Level Washington Center
Mon 06:18:00 AM 39.1065 -77.2265 211° Southwest  Level FlightAware Approximate
Mon 06:18:22 AM 39.2119 -76.9525 290° West 246 283 9,300  Level Washington Center
Mon 06:19:00 AM 39.0229 -77.2938 218° Southwest  Level FlightAware Approximate
Mon 06:19:23 AM 39.2108 -77.0514 269° West 263 303 11,100  Level Washington Center
Mon 06:20:22 AM 39.2033 -77.1506 264° West 274 315 12,500 1,664 Climbing Washington Center
Mon 06:21:22 AM 39.1303 -77.1731 193° South 223 257 14,400 1,537 Climbing Washington Center
Mon 06:22:23 AM 39.0636 -77.1661 175° South 235 270 15,600 1,328 Climbing Washington Center
Mon 06:23:24 AM 39.0183 -77.2667 240° Southwest 243 280 17,100 1,200 Climbing Washington Center
Mon 06:24:23 AM 39.0128 -77.3708 266° West 240 276 18,000 900 Climbing Washington Center
Mon 06:25:24 AM 39.0050 -77.4800 265° West 270 311 18,900 1,008 Climbing Washington Center
Mon 06:26:22 AM 39.0011 -77.5922 267° West 308 354 20,000 1,059 Climbing Washington Center
Mon 06:27:23 AM 38.9931 -77.6881 264° West 321 369 21,000 992 Climbing Washington Center
Mon 06:28:23 AM 38.9867 -77.8136 266° West 321 369 22,000 1,008 Climbing Washington Center
Mon 06:29:22 AM 38.9783 -77.9308 265° West 326 375 23,000 1,059 Climbing Washington Center
Mon 06:30:22 AM 38.9183 -78.0142 227° Southwest 314 361 24,100 1,050 Climbing Washington Center
Mon 06:31:22 AM 38.8458 -78.0839 217° Southwest 314 361 25,100 1,041 Climbing Washington Center
Mon 06:32:23 AM 38.8228 -78.1897 254° West 308 354 26,200 1,033 Climbing Washington Center
Mon 06:33:24 AM 38.8514 -78.3078 287° West 304 350 27,200 984 Climbing Washington Center
Mon 06:34:25 AM 38.8800 -78.4236 288° West 326 375 28,200 1,017 Climbing Washington Center
Mon 06:35:22 AM 38.9086 -78.5422 287° West 339 390 29,200 1,086 Climbing Washington Center
Mon 06:36:21 AM 38.9347 -78.6606 286° West 344 396 30,300 1,091 Climbing Washington Center
Mon 06:37:23 AM 38.9608 -78.7792 286° West 344 396 31,400 1,073 Climbing Washington Center
Mon 06:38:24 AM 38.9828 -78.8950 284° West 344 396 32,500 1,109 Climbing Washington Center
Mon 06:39:22 AM 38.9878 -79.0128 273° West 339 390 33,600 756 Climbing Washington Center
Mon 06:40:23 AM 38.9883 -79.1328 270° West 334 384 34,000 197 Climbing Washington Center
Mon 06:41:24 AM 38.9911 -79.2558 272° West 334 384 34,000  Level Washington Center
Mon 06:42:24 AM 38.9936 -79.3761 272° West 339 390 34,000  Level Washington Center
Mon 06:43:23 AM 38.9958 -79.4964 271° West 339 390 34,000  Level Washington Center
Mon 06:44:23 AM 39.0003 -79.6144 273° West 334 384 34,000  Level Washington Center
Mon 06:45:23 AM 39.0008 -79.7267 270° West 334 384 34,000  Level Washington Center
Mon 06:46:24 AM 39.0031 -79.8389 271° West 334 384 34,000  Level Washington Center
Mon 06:47:22 AM 39.0050 -79.9619 271° West 341 392 34,000  Level Washington Center
Mon 06:49:25 AM 39.0058 -80.2406 270° West 388 447 34,000  Level Indianapolis Center
Mon 06:50:26 AM 39.0086 -80.3825 271° West 396 456 34,000  Level Indianapolis Center
Mon 06:51:27 AM 39.0108 -80.5178 271° West 384 442 34,000 148 Level Indianapolis Center
Mon 06:52:28 AM 39.0119 -80.6556 271° West 385 443 34,300 645 Climbing Indianapolis Center
Mon 06:53:28 AM 39.0125 -80.7936 270° West 387 445 35,300 843 Climbing Indianapolis Center
Mon 06:54:29 AM 39.0306 -80.9253 280° West 387 445 36,000 344 Climbing Indianapolis Center
Mon 06:55:30 AM 39.0756 -81.0550 294° West 400 460 36,000  Level Indianapolis Center
Mon 06:56:31 AM 39.1203 -81.1875 294° West 405 466 36,000  Level Indianapolis Center
Mon 06:57:32 AM 39.1700 -81.3411 293° West 394 453 36,000  Level Indianapolis Center
Mon 06:58:33 AM 39.2125 -81.4683 293° West 389 448 36,000  Level Indianapolis Center
Mon 06:59:33 AM 39.2544 -81.5953 293° West 387 445 36,000  Level Indianapolis Center
Mon 07:00:34 AM 39.2958 -81.7233 293° West 388 447 36,000  Level Indianapolis Center
Mon 07:01:35 AM 39.3369 -81.8511 293° West 387 445 36,000  Level Indianapolis Center
Mon 07:02:36 AM 39.3789 -81.9789 293° West 386 444 36,000  Level Indianapolis Center
Mon 07:03:37 AM 39.4200 -82.1067 293° West 386 444 36,000  Level Indianapolis Center
Mon 07:04:38 AM 39.4647 -82.2483 292° West 386 444 36,000  Level Indianapolis Center
Mon 07:05:39 AM 39.5058 -82.3786 292° West 387 445 36,000  Level Indianapolis Center
Mon 07:06:40 AM 39.5467 -82.5072 292° West 384 442 36,000  Level Indianapolis Center
Mon 07:07:41 AM 39.5881 -82.6375 292° West 386 444 36,000  Level Indianapolis Center
Mon 07:08:42 AM 39.6292 -82.7689 292° West 389 448 36,000  Level Indianapolis Center
Mon 07:09:43 AM 39.6711 -82.9006 293° West 391 450 36,000  Level Indianapolis Center
Mon 07:10:44 AM 39.7122 -83.0328 292° West 391 450 36,000  Level Indianapolis Center
Mon 07:11:45 AM 39.7528 -83.1647 292° West 390 449 36,000  Level Indianapolis Center
Mon 07:12:46 AM 39.7931 -83.2944 292° West 385 443 36,000  Level Indianapolis Center
Mon 07:13:47 AM 39.8347 -83.4300 292° West 390 449 36,000  Level Indianapolis Center
Mon 07:14:49 AM 39.8742 -83.5642 291° West 396 456 36,000  Level Indianapolis Center
Mon 07:15:50 AM 39.9197 -83.7131 292° West 407 468 36,000  Level Indianapolis Center
Mon 07:16:51 AM 39.9625 -83.8544 292° West 414 476 36,000  Level Indianapolis Center
Mon 07:17:52 AM 40.0058 -83.9953 292° West 417 480 36,000  Level Indianapolis Center
Mon 07:18:53 AM 40.0467 -84.1350 291° West 412 474 36,000  Level Indianapolis Center
Mon 07:19:54 AM 40.0894 -84.2753 292° West 412 474 36,000 -341 Level Indianapolis Center
Mon 07:20:56 AM 40.1303 -84.4131 291° West 405 466 35,300 -836 Descending Indianapolis Center
Mon 07:21:56 AM 40.1725 -84.5628 290° West 434 499 34,300 -984 Descending Indianapolis Center
Mon 07:22:58 AM 40.2158 -84.7128 291° West 436 502 33,300 -1,122 Descending Indianapolis Center
Mon 07:23:59 AM 40.2608 -84.8603 292° West 434 499 32,000 -1,525 Descending Indianapolis Center
Mon 07:25:00 AM 40.3011 -85.0086 290° West 452 520 30,200 -1,967 Descending Indianapolis Center
Mon 07:26:01 AM 40.3469 -85.1672 291° West 467 537 28,000 -1,738 Descending Indianapolis Center
Mon 07:26:47 AM 40.3839 -85.2928 291° West 471 542 27,100 -1,056 Descending Chicago Center
Mon 07:27:49 AM 40.4469 -85.4458 298° West 495 570 26,100 -976 Descending Chicago Center
Mon 07:28:50 AM 40.5567 -85.5606 322° Northwest 508 585 25,100 -1,033 Descending Chicago Center
Mon 07:29:51 AM 40.6844 -85.6983 321° Northwest 500 575 24,000 -537 Descending Chicago Center
Mon 07:30:53 AM 40.7978 -85.7944 327° Northwest 505 581 24,000 -146 Level Chicago Center
Mon 07:31:54 AM 40.9322 -85.8492 343° North 504 580 23,700 -683 Descending Chicago Center
Mon 07:32:56 AM 41.0217 -85.9628 316° Northwest 455 524 22,600 -1,024 Descending Chicago Center
Mon 07:33:57 AM 41.0431 -86.1089 281° West 415 478 21,600 -1,033 Descending Chicago Center
Mon 07:34:58 AM 41.0447 -86.2578 271° West 407 468 20,500 -780 Descending Chicago Center
Mon 07:36:00 AM 41.0442 -86.4033 270° West 400 460 20,000 -488 Descending Chicago Center
Mon 07:37:01 AM 41.0761 -86.5431 287° West 409 471 19,500 -1,073 Descending Chicago Center
Mon 07:38:03 AM 41.1353 -86.6731 301° West 411 473 17,800 -1,659 Descending Chicago Center
Mon 07:39:04 AM 41.2036 -86.8236 301° West 404 465 16,100 -878 Descending Chicago Center
Mon 07:40:06 AM 41.2581 -86.9478 300° West 394 453 16,000 -878 Descending Chicago Center
Mon 07:41:07 AM 41.3106 -87.0711 300° West 390 449 14,300 -1,951 Descending Chicago Center
Mon 07:42:09 AM 41.3633 -87.1922 300° West 384 442 12,000 -1,561 Descending Chicago Center
Mon 07:43:10 AM 41.4344 -87.2733 319° Northwest 337 388 11,100 -488 Descending Chicago Center
Mon 07:44:12 AM 41.4983 -87.3461 320° Northwest 310 357 11,000 -49 Descending Chicago Center
Mon 07:45:13 AM 41.5731 -87.4317 319° Northwest 301 346 11,000 -829 Level Chicago Center
Mon 07:46:15 AM 41.6342 -87.5031 319° Northwest 296 341 9,300 -1,707 Descending Chicago Center
Mon 07:47:16 AM 41.7025 -87.5369 340° North 286 329 7,500 -1,122 Descending Chicago Center
Mon 07:48:18 AM 41.7783 -87.5414 357° North 275 316 7,000 -242 Descending Chicago Center
Mon 07:49:20 AM 41.8519 -87.5417 360° North 269 310 7,000 -439 Level Chicago Center
Mon 07:50:21 AM 41.8958 -87.4547 56° Northeast 286 329 6,100 -634 Descending Chicago Center
Mon 07:51:23 AM 41.9203 -87.3461 73° East 270 311 5,700 -537 Descending Chicago Center
Mon 07:52:24 AM 41.9681 -87.3925 324° Northwest 240 276 5,000 -341 Descending Chicago Center
Mon 07:53:26 AM 41.9683 -87.4767 270° West 230 265 5,000 48 Level Chicago Center
Mon 07:54:28 AM 41.9683 -87.5539 270° West 216 249 5,100 -341 Climbing Chicago Center
Mon 07:55:29 AM 41.9681 -87.6278 270° West 202 232 4,300 -787 Descending Chicago Center

Login

Don't have an account? Register now (free) for customized features, flight alerts, and more!